sensor_id;sensor_type;location;lat;lon;timestamp;temperature;humidity
15455;DHT22;21057;51.024;7.540;2023-07-31T00:01:45;16.80;99.90
15455;DHT22;21057;51.024;7.540;2023-07-31T00:04:12;16.90;99.90
15455;DHT22;21057;51.024;7.540;2023-07-31T00:06:39;17.00;99.90
15455;DHT22;21057;51.024;7.540;2023-07-31T00:09:06;16.90;99.90
15455;DHT22;21057;51.024;7.540;2023-07-31T00:11:34;16.90;99.90
15455;DHT22;21057;51.024;7.540;2023-07-31T00:14:01;16.90;99.90
15455;DHT22;21057;51.024;7.540;2023-07-31T00:16:28;16.90;99.90
15455;DHT22;21057;51.024;7.540;2023-07-31T00:18:54;16.90;99.90
15455;DHT22;21057;51.024;7.540;2023-07-31T00:21:21;17.10;99.90
15455;DHT22;21057;51.024;7.540;2023-07-31T00:23:48;17.10;99.90
15455;DHT22;21057;51.024;7.540;2023-07-31T00:26:15;17.10;99.90
15455;DHT22;21057;51.024;7.540;2023-07-31T00:28:43;17.00;99.90
15455;DHT22;21057;51.024;7.540;2023-07-31T00:31:10;17.20;99.90
15455;DHT22;21057;51.024;7.540;2023-07-31T00:33:38;17.30;99.90
15455;DHT22;21057;51.024;7.540;2023-07-31T00:36:05;17.20;99.90
15455;DHT22;21057;51.024;7.540;2023-07-31T00:38:31;17.30;99.90
15455;DHT22;21057;51.024;7.540;2023-07-31T00:40:58;17.30;99.90
15455;DHT22;21057;51.024;7.540;2023-07-31T00:43:25;17.00;99.90
15455;DHT22;21057;51.024;7.540;2023-07-31T00:45:53;17.00;99.90
15455;DHT22;21057;51.024;7.540;2023-07-31T00:48:20;17.00;99.90
15455;DHT22;21057;51.024;7.540;2023-07-31T00:50:47;16.70;99.90
15455;DHT22;21057;51.024;7.540;2023-07-31T00:53:14;16.60;99.90
15455;DHT22;21057;51.024;7.540;2023-07-31T00:55:42;16.60;99.90
15455;DHT22;21057;51.024;7.540;2023-07-31T00:58:09;16.90;99.90
15455;DHT22;21057;51.024;7.540;2023-07-31T01:00:36;16.90;99.90
15455;DHT22;21057;51.024;7.540;2023-07-31T01:03:04;16.80;99.90
15455;DHT22;21057;51.024;7.540;2023-07-31T01:05:38;16.90;99.90
15455;DHT22;21057;51.024;7.540;2023-07-31T01:08:12;17.00;99.90
15455;DHT22;21057;51.024;7.540;2023-07-31T01:10:48;16.90;99.90
15455;DHT22;21057;51.024;7.540;2023-07-31T01:13:18;16.90;99.90
15455;DHT22;21057;51.024;7.540;2023-07-31T01:15:44;17.00;99.90
15455;DHT22;21057;51.024;7.540;2023-07-31T01:18:13;17.00;99.90
15455;DHT22;21057;51.024;7.540;2023-07-31T01:20:42;17.10;99.90
15455;DHT22;21057;51.024;7.540;2023-07-31T01:26:11;17.10;99.90
15455;DHT22;21057;51.024;7.540;2023-07-31T01:28:47;17.20;99.90
15455;DHT22;21057;51.024;7.540;2023-07-31T01:31:20;17.30;99.90
15455;DHT22;21057;51.024;7.540;2023-07-31T01:33:49;17.10;99.90
15455;DHT22;21057;51.024;7.540;2023-07-31T01:36:17;16.80;99.90
15455;DHT22;21057;51.024;7.540;2023-07-31T01:38:44;16.70;99.90
15455;DHT22;21057;51.024;7.540;2023-07-31T01:41:12;16.80;99.90
15455;DHT22;21057;51.024;7.540;2023-07-31T01:43:39;17.00;99.90
15455;DHT22;21057;51.024;7.540;2023-07-31T01:46:06;17.10;99.90
15455;DHT22;21057;51.024;7.540;2023-07-31T01:48:32;17.10;99.90
15455;DHT22;21057;51.024;7.540;2023-07-31T01:51:02;16.90;99.90
15455;DHT22;21057;51.024;7.540;2023-07-31T01:53:29;17.00;99.90
15455;DHT22;21057;51.024;7.540;2023-07-31T01:55:56;17.10;99.90
15455;DHT22;21057;51.024;7.540;2023-07-31T01:58:25;17.10;99.90
15455;DHT22;21057;51.024;7.540;2023-07-31T02:00:51;17.10;99.90
15455;DHT22;21057;51.024;7.540;2023-07-31T02:03:18;17.00;99.90
15455;DHT22;21057;51.024;7.540;2023-07-31T02:05:45;17.00;99.90
15455;DHT22;21057;51.024;7.540;2023-07-31T02:08:12;17.00;99.90
15455;DHT22;21057;51.024;7.540;2023-07-31T02:10:39;16.90;99.90
15455;DHT22;21057;51.024;7.540;2023-07-31T02:13:06;17.00;99.90
15455;DHT22;21057;51.024;7.540;2023-07-31T02:15:34;17.00;99.90
15455;DHT22;21057;51.024;7.540;2023-07-31T02:18:01;17.20;99.90
15455;DHT22;21057;51.024;7.540;2023-07-31T02:20:28;17.10;99.90
15455;DHT22;21057;51.024;7.540;2023-07-31T02:22:55;16.90;99.90
15455;DHT22;21057;51.024;7.540;2023-07-31T02:25:22;17.00;99.90
15455;DHT22;21057;51.024;7.540;2023-07-31T02:27:49;17.10;99.90
15455;DHT22;21057;51.024;7.540;2023-07-31T02:30:15;17.30;99.90
15455;DHT22;21057;51.024;7.540;2023-07-31T02:32:44;17.30;99.90
15455;DHT22;21057;51.024;7.540;2023-07-31T02:35:10;17.30;99.90
15455;DHT22;21057;51.024;7.540;2023-07-31T02:37:41;17.20;99.90
15455;DHT22;21057;51.024;7.540;2023-07-31T02:40:08;17.20;99.90
15455;DHT22;21057;51.024;7.540;2023-07-31T02:42:35;17.10;99.90
15455;DHT22;21057;51.024;7.540;2023-07-31T02:45:02;17.10;99.90
15455;DHT22;21057;51.024;7.540;2023-07-31T02:47:28;17.20;99.90
15455;DHT22;21057;51.024;7.540;2023-07-31T02:49:57;17.20;99.90
15455;DHT22;21057;51.024;7.540;2023-07-31T02:52:25;17.10;99.90
15455;DHT22;21057;51.024;7.540;2023-07-31T02:54:51;17.20;99.90
15455;DHT22;21057;51.024;7.540;2023-07-31T02:57:18;17.30;99.90
15455;DHT22;21057;51.024;7.540;2023-07-31T02:59:45;17.50;99.90
15455;DHT22;21057;51.024;7.540;2023-07-31T03:02:12;17.50;99.90
15455;DHT22;21057;51.024;7.540;2023-07-31T03:04:39;17.50;99.90
15455;DHT22;21057;51.024;7.540;2023-07-31T03:07:08;17.50;99.90
15455;DHT22;21057;51.024;7.540;2023-07-31T03:09:34;17.50;99.90
15455;DHT22;21057;51.024;7.540;2023-07-31T03:12:01;17.40;99.90
15455;DHT22;21057;51.024;7.540;2023-07-31T03:14:28;17.50;99.90
15455;DHT22;21057;51.024;7.540;2023-07-31T03:16:56;17.50;99.90
15455;DHT22;21057;51.024;7.540;2023-07-31T03:19:23;17.50;99.90
15455;DHT22;21057;51.024;7.540;2023-07-31T03:21:50;17.50;99.90
15455;DHT22;21057;51.024;7.540;2023-07-31T03:24:18;17.50;99.90
15455;DHT22;21057;51.024;7.540;2023-07-31T03:26:45;17.70;99.90
15455;DHT22;21057;51.024;7.540;2023-07-31T03:29:11;17.50;99.90
15455;DHT22;21057;51.024;7.540;2023-07-31T03:31:38;17.50;99.90
15455;DHT22;21057;51.024;7.540;2023-07-31T03:34:05;17.50;99.90
15455;DHT22;21057;51.024;7.540;2023-07-31T03:36:32;17.50;99.90
15455;DHT22;21057;51.024;7.540;2023-07-31T03:38:59;17.60;99.90
15455;DHT22;21057;51.024;7.540;2023-07-31T03:41:27;17.60;99.90
15455;DHT22;21057;51.024;7.540;2023-07-31T03:43:54;17.60;99.90
15455;DHT22;21057;51.024;7.540;2023-07-31T03:46:21;17.70;99.90
15455;DHT22;21057;51.024;7.540;2023-07-31T03:48:48;17.70;99.90
15455;DHT22;21057;51.024;7.540;2023-07-31T03:51:15;17.70;99.90
15455;DHT22;21057;51.024;7.540;2023-07-31T03:53:43;17.70;99.90
15455;DHT22;21057;51.024;7.540;2023-07-31T03:56:10;17.60;99.90
15455;DHT22;21057;51.024;7.540;2023-07-31T03:58:38;17.70;99.90
15455;DHT22;21057;51.024;7.540;2023-07-31T04:01:05;17.70;99.90
15455;DHT22;21057;51.024;7.540;2023-07-31T04:03:32;17.80;99.90
15455;DHT22;21057;51.024;7.540;2023-07-31T04:05:59;17.70;99.90
15455;DHT22;21057;51.024;7.540;2023-07-31T04:08:26;17.70;99.90
15455;DHT22;21057;51.024;7.540;2023-07-31T04:10:53;17.60;99.90
15455;DHT22;21057;51.024;7.540;2023-07-31T04:13:21;17.40;99.90
15455;DHT22;21057;51.024;7.540;2023-07-31T04:15:50;17.40;99.90
15455;DHT22;21057;51.024;7.540;2023-07-31T04:18:17;17.60;99.90
15455;DHT22;21057;51.024;7.540;2023-07-31T04:20:44;17.60;99.90
15455;DHT22;21057;51.024;7.540;2023-07-31T04:23:11;17.60;99.90
15455;DHT22;21057;51.024;7.540;2023-07-31T04:25:38;17.60;99.90
15455;DHT22;21057;51.024;7.540;2023-07-31T04:28:05;17.40;99.90
15455;DHT22;21057;51.024;7.540;2023-07-31T04:30:33;17.30;99.90
15455;DHT22;21057;51.024;7.540;2023-07-31T04:33:01;17.20;99.90
15455;DHT22;21057;51.024;7.540;2023-07-31T04:35:28;17.20;99.90
15455;DHT22;21057;51.024;7.540;2023-07-31T04:37:55;17.30;99.90
15455;DHT22;21057;51.024;7.540;2023-07-31T04:40:21;17.30;99.90
15455;DHT22;21057;51.024;7.540;2023-07-31T04:42:48;17.40;99.90
15455;DHT22;21057;51.024;7.540;2023-07-31T04:45:15;17.50;99.90
15455;DHT22;21057;51.024;7.540;2023-07-31T04:47:42;17.50;99.90
15455;DHT22;21057;51.024;7.540;2023-07-31T04:50:10;17.40;99.90
15455;DHT22;21057;51.024;7.540;2023-07-31T04:52:37;17.30;99.90
15455;DHT22;21057;51.024;7.540;2023-07-31T04:55:04;17.40;99.90
15455;DHT22;21057;51.024;7.540;2023-07-31T04:57:31;17.50;99.90
15455;DHT22;21057;51.024;7.540;2023-07-31T04:59:58;17.50;99.90
15455;DHT22;21057;51.024;7.540;2023-07-31T05:02:25;17.50;99.90
15455;DHT22;21057;51.024;7.540;2023-07-31T05:04:52;17.60;99.90
15455;DHT22;21057;51.024;7.540;2023-07-31T05:07:20;17.60;99.90
15455;DHT22;21057;51.024;7.540;2023-07-31T05:09:47;17.60;99.90
15455;DHT22;21057;51.024;7.540;2023-07-31T05:12:13;17.60;99.90
15455;DHT22;21057;51.024;7.540;2023-07-31T05:14:40;17.60;99.90
15455;DHT22;21057;51.024;7.540;2023-07-31T05:17:07;17.50;99.90
15455;DHT22;21057;51.024;7.540;2023-07-31T05:19:34;17.50;99.90
15455;DHT22;21057;51.024;7.540;2023-07-31T05:22:01;17.50;99.90
15455;DHT22;21057;51.024;7.540;2023-07-31T05:24:29;17.60;99.90
15455;DHT22;21057;51.024;7.540;2023-07-31T05:26:56;17.70;99.90
15455;DHT22;21057;51.024;7.540;2023-07-31T05:29:23;17.60;99.90
15455;DHT22;21057;51.024;7.540;2023-07-31T05:31:49;17.70;99.90
15455;DHT22;21057;51.024;7.540;2023-07-31T05:34:16;17.80;99.90
15455;DHT22;21057;51.024;7.540;2023-07-31T05:36:43;17.80;99.90
15455;DHT22;21057;51.024;7.540;2023-07-31T05:39:10;17.90;99.90
15455;DHT22;21057;51.024;7.540;2023-07-31T05:41:38;17.90;99.90
15455;DHT22;21057;51.024;7.540;2023-07-31T05:44:05;17.90;99.90
15455;DHT22;21057;51.024;7.540;2023-07-31T05:46:32;18.10;99.90
15455;DHT22;21057;51.024;7.540;2023-07-31T05:48:59;18.10;99.90
15455;DHT22;21057;51.024;7.540;2023-07-31T05:51:26;18.30;99.90
15455;DHT22;21057;51.024;7.540;2023-07-31T05:53:53;18.30;99.90
15455;DHT22;21057;51.024;7.540;2023-07-31T05:56:20;18.40;99.90
15455;DHT22;21057;51.024;7.540;2023-07-31T05:58:48;18.50;99.90
15455;DHT22;21057;51.024;7.540;2023-07-31T06:01:16;18.50;99.90
15455;DHT22;21057;51.024;7.540;2023-07-31T06:03:43;18.50;99.90
15455;DHT22;21057;51.024;7.540;2023-07-31T06:06:10;18.60;99.90
15455;DHT22;21057;51.024;7.540;2023-07-31T06:08:37;18.70;99.90
15455;DHT22;21057;51.024;7.540;2023-07-31T06:11:05;18.50;99.90
15455;DHT22;21057;51.024;7.540;2023-07-31T06:13:32;18.50;99.90
15455;DHT22;21057;51.024;7.540;2023-07-31T06:16:01;18.60;99.90
15455;DHT22;21057;51.024;7.540;2023-07-31T06:18:30;18.60;99.90
15455;DHT22;21057;51.024;7.540;2023-07-31T06:20:57;18.70;99.90
15455;DHT22;21057;51.024;7.540;2023-07-31T06:23:24;18.60;99.90
15455;DHT22;21057;51.024;7.540;2023-07-31T06:25:51;18.70;99.90
15455;DHT22;21057;51.024;7.540;2023-07-31T06:28:18;18.60;99.90
15455;DHT22;21057;51.024;7.540;2023-07-31T06:30:44;18.70;99.90
15455;DHT22;21057;51.024;7.540;2023-07-31T06:33:13;18.60;99.90
15455;DHT22;21057;51.024;7.540;2023-07-31T06:35:39;18.70;99.90
15455;DHT22;21057;51.024;7.540;2023-07-31T06:38:06;18.60;99.90
15455;DHT22;21057;51.024;7.540;2023-07-31T06:40:33;18.60;99.90
15455;DHT22;21057;51.024;7.540;2023-07-31T06:43:00;18.50;99.90
15455;DHT22;21057;51.024;7.540;2023-07-31T06:45:33;18.50;99.90
15455;DHT22;21057;51.024;7.540;2023-07-31T06:48:00;18.60;99.90
15455;DHT22;21057;51.024;7.540;2023-07-31T06:50:28;18.60;99.90
15455;DHT22;21057;51.024;7.540;2023-07-31T06:52:55;18.60;99.90
15455;DHT22;21057;51.024;7.540;2023-07-31T06:55:23;18.40;99.90
15455;DHT22;21057;51.024;7.540;2023-07-31T06:57:51;18.30;99.90
15455;DHT22;21057;51.024;7.540;2023-07-31T07:00:19;18.40;99.90
15455;DHT22;21057;51.024;7.540;2023-07-31T07:02:46;18.60;99.90
15455;DHT22;21057;51.024;7.540;2023-07-31T07:05:14;18.50;99.90
15455;DHT22;21057;51.024;7.540;2023-07-31T07:07:43;18.40;99.90
15455;DHT22;21057;51.024;7.540;2023-07-31T07:10:09;18.40;99.90
15455;DHT22;21057;51.024;7.540;2023-07-31T07:12:36;18.40;99.90
15455;DHT22;21057;51.024;7.540;2023-07-31T07:15:04;18.50;99.90
15455;DHT22;21057;51.024;7.540;2023-07-31T07:17:31;18.60;99.90
15455;DHT22;21057;51.024;7.540;2023-07-31T07:19:58;18.60;99.90
15455;DHT22;21057;51.024;7.540;2023-07-31T07:22:25;18.90;99.90
15455;DHT22;21057;51.024;7.540;2023-07-31T07:24:54;19.00;99.90
15455;DHT22;21057;51.024;7.540;2023-07-31T07:27:20;19.10;99.90
15455;DHT22;21057;51.024;7.540;2023-07-31T07:29:50;19.20;99.90
15455;DHT22;21057;51.024;7.540;2023-07-31T07:32:17;19.30;99.90
15455;DHT22;21057;51.024;7.540;2023-07-31T07:34:44;19.50;99.90
15455;DHT22;21057;51.024;7.540;2023-07-31T07:37:11;19.50;99.90
15455;DHT22;21057;51.024;7.540;2023-07-31T07:39:38;19.60;99.90
15455;DHT22;21057;51.024;7.540;2023-07-31T07:42:06;19.70;99.90
15455;DHT22;21057;51.024;7.540;2023-07-31T07:44:33;19.60;99.90
15455;DHT22;21057;51.024;7.540;2023-07-31T07:47:00;19.50;99.90
15455;DHT22;21057;51.024;7.540;2023-07-31T07:49:27;19.40;99.90
15455;DHT22;21057;51.024;7.540;2023-07-31T07:51:53;19.40;99.90
15455;DHT22;21057;51.024;7.540;2023-07-31T07:54:20;19.30;99.90
15455;DHT22;21057;51.024;7.540;2023-07-31T07:56:47;19.20;99.90
15455;DHT22;21057;51.024;7.540;2023-07-31T07:59:16;19.10;99.90
15455;DHT22;21057;51.024;7.540;2023-07-31T08:01:43;18.80;99.90
15455;DHT22;21057;51.024;7.540;2023-07-31T08:04:10;18.70;99.90
15455;DHT22;21057;51.024;7.540;2023-07-31T08:06:36;18.70;99.90
15455;DHT22;21057;51.024;7.540;2023-07-31T08:09:03;18.70;99.90
15455;DHT22;21057;51.024;7.540;2023-07-31T08:11:31;18.80;99.90
15455;DHT22;21057;51.024;7.540;2023-07-31T08:13:58;18.60;99.90
15455;DHT22;21057;51.024;7.540;2023-07-31T08:16:27;18.80;99.90
15455;DHT22;21057;51.024;7.540;2023-07-31T08:18:53;18.70;99.90
15455;DHT22;21057;51.024;7.540;2023-07-31T08:21:21;18.80;99.90
15455;DHT22;21057;51.024;7.540;2023-07-31T08:23:48;18.80;99.90
15455;DHT22;21057;51.024;7.540;2023-07-31T08:26:15;18.80;99.90
15455;DHT22;21057;51.024;7.540;2023-07-31T08:28:42;18.80;99.90
15455;DHT22;21057;51.024;7.540;2023-07-31T08:31:09;18.80;99.90
15455;DHT22;21057;51.024;7.540;2023-07-31T08:33:37;18.80;99.90
15455;DHT22;21057;51.024;7.540;2023-07-31T08:36:04;18.80;99.90
15455;DHT22;21057;51.024;7.540;2023-07-31T08:38:31;18.90;99.90
15455;DHT22;21057;51.024;7.540;2023-07-31T08:40:58;18.90;99.90
15455;DHT22;21057;51.024;7.540;2023-07-31T08:43:26;19.00;99.90
15455;DHT22;21057;51.024;7.540;2023-07-31T08:45:53;18.70;99.90
15455;DHT22;21057;51.024;7.540;2023-07-31T08:48:21;18.80;99.90
15455;DHT22;21057;51.024;7.540;2023-07-31T08:50:51;18.70;99.90
15455;DHT22;21057;51.024;7.540;2023-07-31T08:53:18;18.70;99.90
15455;DHT22;21057;51.024;7.540;2023-07-31T08:55:45;18.80;99.90
15455;DHT22;21057;51.024;7.540;2023-07-31T08:58:12;18.40;99.90
15455;DHT22;21057;51.024;7.540;2023-07-31T09:00:40;17.80;99.90
15455;DHT22;21057;51.024;7.540;2023-07-31T09:03:13;17.60;99.90
15455;DHT22;21057;51.024;7.540;2023-07-31T09:05:42;17.40;99.90
15455;DHT22;21057;51.024;7.540;2023-07-31T09:08:11;17.30;99.90
15455;DHT22;21057;51.024;7.540;2023-07-31T09:10:41;17.40;99.90
15455;DHT22;21057;51.024;7.540;2023-07-31T09:13:08;17.80;99.90
15455;DHT22;21057;51.024;7.540;2023-07-31T09:15:35;17.80;99.90
15455;DHT22;21057;51.024;7.540;2023-07-31T09:18:03;17.90;99.90
15455;DHT22;21057;51.024;7.540;2023-07-31T09:20:31;17.70;99.90
15455;DHT22;21057;51.024;7.540;2023-07-31T09:23:05;17.80;99.90
15455;DHT22;21057;51.024;7.540;2023-07-31T09:25:35;18.10;99.90
15455;DHT22;21057;51.024;7.540;2023-07-31T09:28:04;18.20;99.90
15455;DHT22;21057;51.024;7.540;2023-07-31T09:30:31;18.40;99.90
15455;DHT22;21057;51.024;7.540;2023-07-31T09:33:02;18.50;99.90
15455;DHT22;21057;51.024;7.540;2023-07-31T09:35:33;18.70;99.90
15455;DHT22;21057;51.024;7.540;2023-07-31T09:38:03;18.80;99.90
15455;DHT22;21057;51.024;7.540;2023-07-31T09:40:31;19.00;99.90
15455;DHT22;21057;51.024;7.540;2023-07-31T09:43:00;19.10;99.90
15455;DHT22;21057;51.024;7.540;2023-07-31T09:45:28;19.30;99.90
15455;DHT22;21057;51.024;7.540;2023-07-31T09:47:55;19.10;99.90
15455;DHT22;21057;51.024;7.540;2023-07-31T09:50:24;18.90;99.90
15455;DHT22;21057;51.024;7.540;2023-07-31T09:52:51;19.00;99.90
15455;DHT22;21057;51.024;7.540;2023-07-31T09:55:19;19.00;99.90
15455;DHT22;21057;51.024;7.540;2023-07-31T09:57:48;18.90;99.90
15455;DHT22;21057;51.024;7.540;2023-07-31T10:00:17;18.70;99.90
15455;DHT22;21057;51.024;7.540;2023-07-31T10:02:46;18.60;99.90
15455;DHT22;21057;51.024;7.540;2023-07-31T10:05:15;18.50;99.90
15455;DHT22;21057;51.024;7.540;2023-07-31T10:07:45;18.50;99.90
15455;DHT22;21057;51.024;7.540;2023-07-31T10:10:16;18.70;99.90
15455;DHT22;21057;51.024;7.540;2023-07-31T10:12:44;18.70;99.90
15455;DHT22;21057;51.024;7.540;2023-07-31T10:15:12;18.50;99.90
15455;DHT22;21057;51.024;7.540;2023-07-31T10:17:41;18.70;99.90
15455;DHT22;21057;51.024;7.540;2023-07-31T10:20:09;19.00;99.90
15455;DHT22;21057;51.024;7.540;2023-07-31T10:22:36;19.10;99.90
15455;DHT22;21057;51.024;7.540;2023-07-31T10:25:04;18.90;99.90
15455;DHT22;21057;51.024;7.540;2023-07-31T10:27:34;18.90;99.90
15455;DHT22;21057;51.024;7.540;2023-07-31T10:30:03;18.80;99.90
15455;DHT22;21057;51.024;7.540;2023-07-31T10:32:32;18.80;99.90
15455;DHT22;21057;51.024;7.540;2023-07-31T10:35:01;18.70;99.90
15455;DHT22;21057;51.024;7.540;2023-07-31T10:37:36;18.80;99.90
15455;DHT22;21057;51.024;7.540;2023-07-31T10:40:05;18.90;99.90
15455;DHT22;21057;51.024;7.540;2023-07-31T10:42:34;19.00;99.90
15455;DHT22;21057;51.024;7.540;2023-07-31T10:45:03;18.70;99.90
15455;DHT22;21057;51.024;7.540;2023-07-31T10:47:30;18.80;99.90
15455;DHT22;21057;51.024;7.540;2023-07-31T10:50:17;18.80;99.90
15455;DHT22;21057;51.024;7.540;2023-07-31T10:52:47;18.90;99.90
15455;DHT22;21057;51.024;7.540;2023-07-31T10:55:33;19.10;99.90
15455;DHT22;21057;51.024;7.540;2023-07-31T10:58:07;19.20;99.90
15455;DHT22;21057;51.024;7.540;2023-07-31T11:00:37;19.40;99.90
15455;DHT22;21057;51.024;7.540;2023-07-31T11:03:05;19.30;99.90
15455;DHT22;21057;51.024;7.540;2023-07-31T11:06:02;19.30;99.90
15455;DHT22;21057;51.024;7.540;2023-07-31T11:08:30;19.50;99.90
15455;DHT22;21057;51.024;7.540;2023-07-31T11:11:08;19.60;99.90
15455;DHT22;21057;51.024;7.540;2023-07-31T11:13:41;19.80;99.90
15455;DHT22;21057;51.024;7.540;2023-07-31T11:16:08;19.80;99.90
15455;DHT22;21057;51.024;7.540;2023-07-31T11:18:35;19.90;99.90
15455;DHT22;21057;51.024;7.540;2023-07-31T11:21:03;19.90;99.90
15455;DHT22;21057;51.024;7.540;2023-07-31T11:23:30;20.00;99.90
15455;DHT22;21057;51.024;7.540;2023-07-31T11:25:59;19.90;99.90
15455;DHT22;21057;51.024;7.540;2023-07-31T11:28:31;19.90;99.90
15455;DHT22;21057;51.024;7.540;2023-07-31T11:30:59;19.90;99.90
15455;DHT22;21057;51.024;7.540;2023-07-31T11:33:26;20.00;99.90
15455;DHT22;21057;51.024;7.540;2023-07-31T11:35:53;20.30;99.90
15455;DHT22;21057;51.024;7.540;2023-07-31T11:38:26;20.10;99.90
15455;DHT22;21057;51.024;7.540;2023-07-31T11:40:53;20.20;99.90
15455;DHT22;21057;51.024;7.540;2023-07-31T11:43:21;20.20;99.90
15455;DHT22;21057;51.024;7.540;2023-07-31T11:45:49;20.00;99.90
15455;DHT22;21057;51.024;7.540;2023-07-31T11:48:20;20.00;99.90
15455;DHT22;21057;51.024;7.540;2023-07-31T11:50:49;20.10;99.90
15455;DHT22;21057;51.024;7.540;2023-07-31T11:53:18;20.10;99.90
15455;DHT22;21057;51.024;7.540;2023-07-31T11:55:47;20.00;99.90
15455;DHT22;21057;51.024;7.540;2023-07-31T11:58:15;20.10;99.90
15455;DHT22;21057;51.024;7.540;2023-07-31T12:00:43;19.80;99.90
15455;DHT22;21057;51.024;7.540;2023-07-31T12:05:40;19.30;99.90
15455;DHT22;21057;51.024;7.540;2023-07-31T12:08:11;19.30;99.90
15455;DHT22;21057;51.024;7.540;2023-07-31T12:10:39;19.00;99.90
15455;DHT22;21057;51.024;7.540;2023-07-31T12:13:09;19.10;99.90
15455;DHT22;21057;51.024;7.540;2023-07-31T12:15:40;19.00;99.90
15455;DHT22;21057;51.024;7.540;2023-07-31T12:18:08;19.10;99.90
15455;DHT22;21057;51.024;7.540;2023-07-31T12:20:39;19.10;99.90
15455;DHT22;21057;51.024;7.540;2023-07-31T12:23:07;19.10;99.90
15455;DHT22;21057;51.024;7.540;2023-07-31T12:25:34;18.90;99.90
15455;DHT22;21057;51.024;7.540;2023-07-31T12:28:05;19.00;99.90
15455;DHT22;21057;51.024;7.540;2023-07-31T12:30:39;19.00;99.90
15455;DHT22;21057;51.024;7.540;2023-07-31T12:33:12;19.00;99.90
15455;DHT22;21057;51.024;7.540;2023-07-31T12:35:42;19.20;99.90
15455;DHT22;21057;51.024;7.540;2023-07-31T12:38:10;19.50;99.90
15455;DHT22;21057;51.024;7.540;2023-07-31T12:40:42;19.60;99.90
15455;DHT22;21057;51.024;7.540;2023-07-31T12:43:09;19.60;99.90
15455;DHT22;21057;51.024;7.540;2023-07-31T12:45:37;19.70;99.90
15455;DHT22;21057;51.024;7.540;2023-07-31T12:48:04;19.80;99.90
15455;DHT22;21057;51.024;7.540;2023-07-31T12:50:31;20.00;99.90
15455;DHT22;21057;51.024;7.540;2023-07-31T12:52:58;19.90;99.90
15455;DHT22;21057;51.024;7.540;2023-07-31T12:55:24;19.80;99.90
15455;DHT22;21057;51.024;7.540;2023-07-31T12:57:51;19.90;99.90
15455;DHT22;21057;51.024;7.540;2023-07-31T13:00:18;19.90;99.90
15455;DHT22;21057;51.024;7.540;2023-07-31T13:02:46;19.90;99.90
15455;DHT22;21057;51.024;7.540;2023-07-31T13:05:13;19.90;99.90
15455;DHT22;21057;51.024;7.540;2023-07-31T13:07:41;19.90;99.90
15455;DHT22;21057;51.024;7.540;2023-07-31T13:10:08;19.80;99.90
15455;DHT22;21057;51.024;7.540;2023-07-31T13:12:35;19.70;99.90
15455;DHT22;21057;51.024;7.540;2023-07-31T13:15:02;19.70;99.90
15455;DHT22;21057;51.024;7.540;2023-07-31T13:17:29;19.60;99.90
15455;DHT22;21057;51.024;7.540;2023-07-31T13:19:57;19.70;99.90
15455;DHT22;21057;51.024;7.540;2023-07-31T13:22:24;19.80;99.90
15455;DHT22;21057;51.024;7.540;2023-07-31T13:24:51;19.80;99.90
15455;DHT22;21057;51.024;7.540;2023-07-31T13:27:17;20.00;99.90
15455;DHT22;21057;51.024;7.540;2023-07-31T13:29:47;19.90;99.90
15455;DHT22;21057;51.024;7.540;2023-07-31T13:32:14;19.90;99.90
15455;DHT22;21057;51.024;7.540;2023-07-31T13:34:40;19.90;99.90
15455;DHT22;21057;51.024;7.540;2023-07-31T13:37:09;19.70;99.90
15455;DHT22;21057;51.024;7.540;2023-07-31T13:39:36;19.90;99.90
15455;DHT22;21057;51.024;7.540;2023-07-31T13:42:03;19.90;99.90
15455;DHT22;21057;51.024;7.540;2023-07-31T13:44:32;19.90;99.90
15455;DHT22;21057;51.024;7.540;2023-07-31T13:46:59;19.90;99.90
15455;DHT22;21057;51.024;7.540;2023-07-31T13:49:26;19.90;99.90
15455;DHT22;21057;51.024;7.540;2023-07-31T13:51:52;20.00;99.90
15455;DHT22;21057;51.024;7.540;2023-07-31T13:54:21;19.90;99.90
15455;DHT22;21057;51.024;7.540;2023-07-31T13:56:48;20.10;99.90
15455;DHT22;21057;51.024;7.540;2023-07-31T13:59:15;20.10;99.90
15455;DHT22;21057;51.024;7.540;2023-07-31T14:01:43;20.10;99.90
15455;DHT22;21057;51.024;7.540;2023-07-31T14:04:10;20.30;99.90
15455;DHT22;21057;51.024;7.540;2023-07-31T14:06:36;20.40;99.90
15455;DHT22;21057;51.024;7.540;2023-07-31T14:09:03;20.40;99.90
15455;DHT22;21057;51.024;7.540;2023-07-31T14:11:32;20.50;99.90
15455;DHT22;21057;51.024;7.540;2023-07-31T14:13:59;20.60;99.90
15455;DHT22;21057;51.024;7.540;2023-07-31T14:16:26;20.70;99.90
15455;DHT22;21057;51.024;7.540;2023-07-31T14:18:53;20.90;99.90
15455;DHT22;21057;51.024;7.540;2023-07-31T14:21:20;21.00;99.90
15455;DHT22;21057;51.024;7.540;2023-07-31T14:23:47;21.00;99.90
15455;DHT22;21057;51.024;7.540;2023-07-31T14:26:14;21.10;99.90
15455;DHT22;21057;51.024;7.540;2023-07-31T14:28:43;21.20;99.90
15455;DHT22;21057;51.024;7.540;2023-07-31T14:31:10;21.20;99.90
15455;DHT22;21057;51.024;7.540;2023-07-31T14:33:37;21.00;99.90
15455;DHT22;21057;51.024;7.540;2023-07-31T14:36:04;20.70;99.90
15455;DHT22;21057;51.024;7.540;2023-07-31T14:38:31;20.80;99.90
15455;DHT22;21057;51.024;7.540;2023-07-31T14:40:58;21.00;99.90
15455;DHT22;21057;51.024;7.540;2023-07-31T14:43:25;21.10;99.90
15455;DHT22;21057;51.024;7.540;2023-07-31T14:45:53;21.00;99.90
15455;DHT22;21057;51.024;7.540;2023-07-31T14:48:23;21.00;99.90
15455;DHT22;21057;51.024;7.540;2023-07-31T14:50:50;21.00;99.90
15455;DHT22;21057;51.024;7.540;2023-07-31T14:53:17;20.80;99.90
15455;DHT22;21057;51.024;7.540;2023-07-31T14:55:43;20.60;99.90
15455;DHT22;21057;51.024;7.540;2023-07-31T14:58:10;20.30;99.90
15455;DHT22;21057;51.024;7.540;2023-07-31T15:00:39;20.30;99.90
15455;DHT22;21057;51.024;7.540;2023-07-31T15:03:07;20.20;99.90
15455;DHT22;21057;51.024;7.540;2023-07-31T15:05:34;20.20;99.90
15455;DHT22;21057;51.024;7.540;2023-07-31T15:08:01;20.20;99.90
15455;DHT22;21057;51.024;7.540;2023-07-31T15:10:28;20.10;99.90
15455;DHT22;21057;51.024;7.540;2023-07-31T15:12:54;20.10;99.90
15455;DHT22;21057;51.024;7.540;2023-07-31T15:15:21;20.00;99.90
15455;DHT22;21057;51.024;7.540;2023-07-31T15:17:49;20.00;99.90
15455;DHT22;21057;51.024;7.540;2023-07-31T15:20:17;20.10;99.90
15455;DHT22;21057;51.024;7.540;2023-07-31T15:22:44;20.10;99.90
15455;DHT22;21057;51.024;7.540;2023-07-31T15:25:11;19.90;99.90
15455;DHT22;21057;51.024;7.540;2023-07-31T15:27:37;19.90;99.90
15455;DHT22;21057;51.024;7.540;2023-07-31T15:30:05;19.90;99.90
15455;DHT22;21057;51.024;7.540;2023-07-31T15:32:32;20.10;99.90
15455;DHT22;21057;51.024;7.540;2023-07-31T15:34:59;20.10;99.90
15455;DHT22;21057;51.024;7.540;2023-07-31T15:37:27;20.10;99.90
15455;DHT22;21057;51.024;7.540;2023-07-31T15:39:54;20.10;99.90